createdAt,value
2023-04-01T00:01:51.652Z,90.00
2023-04-01T00:04:18.513Z,89.38
2023-04-01T00:06:45.224Z,89.97
2023-04-01T00:09:11.800Z,89.51
2023-04-01T00:11:38.436Z,89.69
2023-04-01T00:14:05.394Z,89.81
2023-04-01T00:16:32.253Z,90.26
2023-04-01T00:19:03.423Z,89.94
2023-04-01T00:21:33.321Z,90.63
2023-04-01T00:24:00.368Z,89.87
2023-04-01T00:26:27.588Z,90.08
2023-04-01T00:28:54.138Z,90.09
2023-04-01T00:31:20.979Z,90.50
2023-04-01T00:33:47.590Z,90.92
2023-04-01T00:36:17.587Z,91.15
2023-04-01T00:38:44.433Z,90.96
2023-04-01T00:41:17.867Z,91.84
2023-04-01T00:43:50.046Z,90.85
2023-04-01T00:46:16.898Z,90.65
2023-04-01T00:48:48.761Z,90.50
2023-04-01T00:51:19.657Z,90.41
2023-04-01T00:53:49.688Z,90.73
2023-04-01T00:56:26.176Z,91.74
2023-04-01T00:58:59.422Z,91.34
2023-04-01T01:01:31.193Z,90.94
2023-04-01T01:03:59.947Z,90.45
2023-04-01T01:06:35.655Z,90.70
2023-04-01T01:09:33.334Z,90.95
2023-04-01T01:12:10.084Z,90.81
2023-04-01T01:15:02.595Z,90.93
2023-04-01T01:17:50.860Z,91.06
2023-04-01T01:20:56.689Z,91.02
2023-04-01T01:23:49.724Z,90.47
2023-04-01T01:26:34.654Z,91.20
2023-04-01T01:29:27.156Z,90.53
2023-04-01T01:32:32.274Z,90.96
2023-04-01T01:35:23.669Z,91.19
2023-04-01T01:37:56.425Z,90.69
2023-04-01T01:40:27.430Z,90.49
2023-04-01T01:42:59.158Z,90.97
2023-04-01T01:45:28.367Z,90.75
2023-04-01T01:47:56.926Z,90.71
2023-04-01T01:50:25.346Z,90.74
2023-04-01T01:52:51.940Z,90.64
2023-04-01T01:55:33.244Z,91.21
2023-04-01T01:58:11.397Z,90.64
2023-04-01T02:00:39.657Z,90.79
2023-04-01T02:03:08.342Z,90.47
2023-04-01T02:05:36.683Z,90.75
2023-04-01T02:08:08.655Z,90.57
2023-04-01T02:10:43.402Z,90.68
2023-04-01T02:13:21.243Z,90.65
2023-04-01T02:15:53.138Z,90.71
2023-04-01T02:18:21.508Z,91.04
2023-04-01T02:20:48.765Z,91.08
2023-04-01T02:23:17.627Z,90.54
2023-04-01T02:25:45.870Z,90.58
2023-04-01T02:28:18.644Z,90.96
2023-04-01T02:30:46.153Z,91.36
2023-04-01T02:33:12.995Z,91.90
2023-04-01T02:35:40.860Z,91.55
2023-04-01T02:38:10.122Z,91.55
2023-04-01T02:40:49.306Z,91.65
2023-04-01T02:43:17.157Z,90.87
2023-04-01T02:45:44.784Z,91.33
2023-04-01T02:48:11.423Z,91.10
2023-04-01T02:50:37.985Z,90.75
2023-04-01T02:53:07.291Z,91.05
2023-04-01T02:55:35.636Z,90.48
2023-04-01T02:58:02.696Z,90.83
2023-04-01T03:00:33.703Z,90.72
2023-04-01T03:03:00.962Z,90.73
2023-04-01T03:05:27.850Z,90.99
2023-04-01T03:07:54.591Z,91.52
2023-04-01T03:10:21.368Z,90.49
2023-04-01T03:12:47.995Z,91.24
2023-04-01T03:15:16.858Z,91.11
2023-04-01T03:17:46.519Z,90.83
2023-04-01T03:20:13.884Z,90.92
2023-04-01T03:22:42.861Z,90.60
2023-04-01T03:25:12.101Z,90.48
2023-04-01T03:27:39.292Z,91.06
2023-04-01T03:30:07.436Z,91.62
2023-04-01T03:32:34.477Z,91.60
2023-04-01T03:35:01.138Z,90.72
2023-04-01T03:37:28.435Z,91.22
2023-04-01T03:39:57.059Z,91.30
2023-04-01T03:42:26.653Z,91.32
2023-04-01T03:44:53.266Z,91.14
2023-04-01T03:47:19.842Z,90.91
2023-04-01T03:49:46.399Z,90.95
2023-04-01T03:52:13.160Z,90.81
2023-04-01T03:54:39.828Z,91.05
2023-04-01T03:57:07.844Z,90.69
2023-04-01T03:59:36.296Z,90.76
2023-04-01T04:02:02.950Z,90.88
2023-04-01T04:04:29.668Z,91.09
2023-04-01T04:06:58.114Z,91.18
2023-04-01T04:09:24.726Z,91.29
2023-04-01T04:11:51.853Z,91.82
2023-04-01T04:14:18.495Z,90.90
2023-04-01T04:16:45.400Z,91.63
2023-04-01T04:19:14.390Z,91.18
2023-04-01T04:21:42.763Z,92.38
2023-04-01T04:24:09.500Z,93.03
2023-04-01T04:26:36.130Z,92.50
2023-04-01T04:29:03.723Z,92.89
2023-04-01T04:31:30.363Z,92.73
2023-04-01T04:33:57.039Z,93.20
2023-04-01T04:36:23.678Z,93.59
2023-04-01T04:38:50.281Z,93.45
2023-04-01T04:41:19.098Z,92.73
2023-04-01T04:43:54.793Z,92.91
2023-04-01T04:46:23.073Z,93.07
2023-04-01T04:48:49.751Z,93.25
2023-04-01T04:51:18.726Z,92.37
2023-04-01T04:53:46.622Z,93.31
2023-04-01T04:56:13.276Z,92.91
2023-04-01T04:58:42.029Z,93.54
2023-04-01T05:01:13.696Z,93.29
2023-04-01T05:03:40.860Z,92.76
2023-04-01T05:06:09.583Z,92.87
2023-04-01T05:08:36.643Z,93.77
2023-04-01T05:11:04.245Z,93.46
2023-04-01T05:13:30.959Z,92.78
2023-04-01T05:15:57.493Z,94.25
2023-04-01T05:18:24.243Z,93.49
2023-04-01T05:20:53.300Z,94.34
2023-04-01T05:23:23.123Z,94.10
2023-04-01T05:25:51.997Z,93.63
2023-04-01T05:28:18.671Z,92.99
2023-04-01T05:30:45.762Z,94.00
2023-04-01T05:33:13.836Z,92.97
2023-04-01T05:35:41.526Z,92.49
2023-04-01T05:38:10.872Z,91.91
2023-04-01T05:40:39.702Z,92.37
2023-04-01T05:43:06.350Z,91.48
2023-04-01T05:45:33.064Z,91.33
2023-04-01T05:48:00.479Z,92.56
2023-04-01T05:50:27.152Z,92.24
2023-04-01T05:52:53.940Z,92.29
2023-04-01T05:55:20.608Z,92.45
2023-04-01T05:57:49.236Z,91.57
2023-04-01T06:00:17.034Z,92.75
2023-04-01T06:02:44.104Z,92.17
2023-04-01T06:05:22.142Z,92.17
2023-04-01T06:07:49.194Z,92.94
2023-04-01T06:10:21.598Z,91.89
2023-04-01T06:13:07.914Z,92.59
2023-04-01T06:16:01.067Z,93.11
2023-04-01T06:18:46.915Z,93.47
2023-04-01T06:22:02.722Z,93.62
2023-04-01T06:24:54.717Z,93.08
2023-04-01T06:27:55.381Z,93.53
2023-04-01T06:30:24.892Z,94.63
2023-04-01T06:33:36.245Z,94.65
2023-04-01T06:36:08.454Z,95.09
2023-04-01T06:39:14.704Z,95.48
2023-04-01T06:41:53.287Z,95.41
2023-04-01T06:44:46.220Z,94.46
2023-04-01T06:47:12.737Z,94.50
2023-04-01T06:50:00.430Z,94.39
2023-04-01T06:53:02.441Z,94.25
2023-04-01T06:55:43.155Z,94.45
2023-04-01T06:58:34.533Z,94.44
2023-04-01T07:01:30.831Z,95.28
2023-04-01T07:04:03.149Z,94.31
2023-04-01T07:06:48.197Z,94.68
2023-04-01T07:09:23.295Z,94.46
2023-04-01T07:11:54.361Z,93.94
2023-04-01T07:14:36.811Z,93.76
2023-04-01T07:17:33.462Z,93.33
2023-04-01T07:20:12.275Z,92.98
2023-04-01T07:22:45.823Z,92.83
2023-04-01T07:25:16.308Z,92.77
2023-04-01T07:27:43.930Z,92.21
2023-04-01T07:30:22.789Z,92.18
2023-04-01T07:35:31.359Z,92.40
2023-04-01T07:38:09.875Z,93.13
2023-04-01T07:40:39.310Z,93.28
2023-04-01T07:43:11.935Z,93.33
2023-04-01T07:45:50.528Z,93.06
2023-04-01T07:48:46.824Z,93.17
2023-04-01T07:51:21.690Z,93.25
2023-04-01T07:54:01.427Z,93.69
2023-04-01T07:56:56.960Z,93.47
2023-04-01T08:00:05.259Z,92.88
2023-04-01T08:03:11.335Z,92.83
2023-04-01T08:06:05.058Z,93.18
2023-04-01T08:09:11.764Z,93.73
2023-04-01T08:12:04.490Z,92.81
2023-04-01T08:14:52.804Z,92.24
2023-04-01T08:17:53.736Z,92.07
2023-04-01T08:20:33.785Z,91.38
2023-04-01T08:23:14.782Z,90.69
2023-04-01T08:25:53.863Z,90.18
2023-04-01T08:28:35.964Z,89.79
2023-04-01T08:31:02.521Z,89.61
2023-04-01T08:33:31.759Z,89.72
2023-04-01T08:36:08.162Z,89.10
2023-04-01T08:38:53.037Z,88.48
2023-04-01T08:41:54.445Z,88.12
2023-04-01T08:44:47.147Z,87.53
2023-04-01T08:47:39.621Z,87.33
2023-04-01T08:50:26.450Z,86.88
2023-04-01T08:53:04.725Z,84.84
2023-04-01T08:55:49.310Z,83.50
2023-04-01T08:58:48.516Z,84.74
2023-04-01T09:01:39.061Z,85.18
2023-04-01T09:04:26.494Z,85.74
2023-04-01T09:07:18.621Z,86.30
2023-04-01T09:10:19.026Z,85.07
2023-04-01T09:13:09.057Z,86.40
2023-04-01T09:16:00.430Z,87.26
2023-04-01T09:18:50.773Z,87.80
2023-04-01T09:21:46.216Z,88.43
2023-04-01T09:24:34.166Z,88.80
2023-04-01T09:27:22.191Z,88.29
2023-04-01T09:30:04.008Z,88.62
2023-04-01T09:32:44.339Z,88.78
2023-04-01T09:35:44.957Z,89.57
2023-04-01T09:38:32.948Z,87.76
2023-04-01T09:41:06.942Z,89.05
2023-04-01T09:43:42.774Z,88.76
2023-04-01T09:46:37.367Z,89.42
2023-04-01T09:49:36.266Z,89.13
2023-04-01T09:52:23.092Z,89.96
2023-04-01T09:55:14.762Z,89.20
2023-04-01T09:58:06.415Z,89.64
2023-04-01T10:00:54.579Z,89.72
2023-04-01T10:03:38.613Z,90.67
2023-04-01T10:06:42.343Z,90.09
2023-04-01T10:09:46.254Z,89.92
2023-04-01T10:12:24.921Z,89.28
2023-04-01T10:15:31.226Z,88.42
2023-04-01T10:18:01.255Z,89.91
2023-04-01T10:21:05.334Z,91.79
2023-04-01T10:23:56.273Z,92.31
2023-04-01T10:26:41.083Z,92.27
2023-04-01T10:29:46.225Z,92.61
2023-04-01T10:32:41.875Z,91.42
2023-04-01T10:35:53.724Z,93.11
2023-04-01T10:38:47.071Z,92.72
2023-04-01T10:41:43.100Z,92.39
2023-04-01T10:44:39.403Z,93.66
2023-04-01T10:47:27.504Z,94.12
2023-04-01T10:50:13.107Z,94.65
2023-04-01T10:52:58.241Z,95.42
2023-04-01T10:55:52.295Z,96.65
2023-04-01T10:58:31.093Z,94.95
2023-04-01T11:01:09.881Z,93.54
2023-04-01T11:04:14.141Z,92.21
2023-04-01T11:06:59.286Z,91.04
2023-04-01T11:09:44.081Z,88.11
2023-04-01T11:12:22.731Z,85.92
2023-04-01T11:15:01.610Z,84.93
2023-04-01T11:17:43.398Z,84.35
2023-04-01T11:20:47.606Z,84.93
2023-04-01T11:23:23.156Z,83.68
2023-04-01T11:25:58.526Z,82.67
2023-04-01T11:28:46.820Z,82.08
2023-04-01T11:31:46.971Z,85.36
2023-04-01T11:34:38.395Z,84.76
2023-04-01T11:37:11.268Z,86.29
2023-04-01T11:39:51.579Z,87.77
2023-04-01T11:42:31.207Z,88.92
2023-04-01T11:45:18.324Z,88.83
2023-04-01T11:48:18.444Z,89.84
2023-04-01T11:51:14.322Z,89.48
2023-04-01T11:53:54.508Z,88.37
2023-04-01T11:56:45.371Z,87.82
2023-04-01T11:59:33.500Z,88.71
2023-04-01T12:02:28.957Z,89.10
2023-04-01T12:05:14.480Z,88.36
2023-04-01T12:08:18.591Z,88.28
2023-04-01T12:11:10.239Z,91.56
2023-04-01T12:14:01.725Z,90.88
2023-04-01T12:16:52.630Z,91.02
2023-04-01T12:19:26.172Z,89.45
2023-04-01T12:22:11.550Z,88.43
2023-04-01T12:24:47.948Z,86.39
2023-04-01T12:27:36.715Z,85.33
2023-04-01T12:30:28.404Z,85.73
2023-04-01T12:33:07.017Z,85.01
2023-04-01T12:35:59.336Z,85.11
2023-04-01T12:38:28.899Z,86.27
2023-04-01T12:41:04.771Z,87.60
2023-04-01T12:44:10.178Z,89.39
2023-04-01T12:46:42.507Z,89.92
2023-04-01T12:49:52.770Z,90.85
2023-04-01T12:52:37.640Z,90.90
2023-04-01T12:55:41.450Z,92.37
2023-04-01T12:58:23.691Z,93.36
2023-04-01T13:01:03.456Z,93.17
2023-04-01T13:04:07.467Z,92.76
2023-04-01T13:06:46.254Z,92.70
2023-04-01T13:09:25.959Z,91.90
2023-04-01T13:12:01.603Z,91.17
2023-04-01T13:14:58.110Z,91.75
2023-04-01T13:17:38.310Z,92.12
2023-04-01T13:20:15.914Z,91.29
2023-04-01T13:23:01.033Z,91.19
2023-04-01T13:25:52.533Z,90.37
2023-04-01T13:28:29.751Z,90.86
2023-04-01T13:31:33.904Z,90.54
2023-04-01T13:34:15.741Z,90.31
2023-04-01T13:37:06.425Z,90.35
2023-04-01T13:39:48.984Z,90.31
2023-04-01T13:42:44.742Z,88.85
2023-04-01T13:45:22.033Z,89.17
2023-04-01T13:48:30.969Z,87.64
2023-04-01T13:51:00.297Z,87.22
2023-04-01T13:53:45.288Z,87.07
2023-04-01T13:56:36.776Z,86.75
2023-04-01T13:59:03.246Z,86.91
2023-04-01T14:02:05.744Z,86.99
2023-04-01T14:04:38.177Z,86.60
2023-04-01T14:07:08.136Z,85.96
2023-04-01T14:10:19.578Z,86.22
2023-04-01T14:13:08.780Z,86.57
2023-04-01T14:15:53.515Z,86.92
2023-04-01T14:18:44.708Z,86.86
2023-04-01T14:21:52.963Z,86.36
2023-04-01T14:24:42.502Z,85.94
2023-04-01T14:27:38.491Z,84.80
2023-04-01T14:30:10.963Z,85.15
2023-04-01T14:33:09.291Z,85.88
2023-04-01T14:35:44.829Z,85.91
2023-04-01T14:38:26.805Z,85.23
2023-04-01T14:41:17.442Z,86.92
2023-04-01T14:44:19.448Z,86.50
2023-04-01T14:47:04.479Z,86.67
2023-04-01T14:49:40.711Z,86.81
2023-04-01T14:52:32.897Z,85.65
2023-04-01T14:55:00.630Z,86.02
2023-04-01T14:57:32.658Z,85.98
2023-04-01T14:59:59.475Z,86.66
2023-04-01T15:02:26.226Z,85.67
2023-04-01T15:05:16.381Z,86.63
2023-04-01T15:08:11.093Z,86.26
2023-04-01T15:10:43.862Z,85.79
2023-04-01T15:13:19.729Z,85.26
2023-04-01T15:15:55.362Z,85.38
2023-04-01T15:18:41.019Z,85.38
2023-04-01T15:21:22.708Z,84.98
2023-04-01T15:23:51.987Z,86.08
2023-04-01T15:26:21.646Z,85.33
2023-04-01T15:28:57.386Z,85.37
2023-04-01T15:31:41.865Z,85.53
2023-04-01T15:34:33.411Z,86.14
2023-04-01T15:37:09.054Z,86.34
2023-04-01T15:40:02.234Z,87.13
2023-04-01T15:43:11.265Z,87.35
2023-04-01T15:46:09.854Z,87.43
2023-04-01T15:49:10.563Z,88.76
2023-04-01T15:51:49.089Z,88.17
2023-04-01T15:54:48.003Z,87.54
2023-04-01T15:57:26.777Z,87.34
2023-04-01T16:00:07.289Z,86.87
2023-04-01T16:03:04.959Z,86.55
2023-04-01T16:06:09.661Z,86.73
2023-04-01T16:08:39.577Z,87.13
2023-04-01T16:11:24.553Z,87.17
2023-04-01T16:13:57.080Z,87.16
2023-04-01T16:16:35.781Z,87.36
2023-04-01T16:19:28.642Z,87.90
2023-04-01T16:22:09.313Z,86.22
2023-04-01T16:24:41.147Z,87.25
2023-04-01T16:27:16.607Z,87.38
2023-04-01T16:29:46.215Z,86.68
2023-04-01T16:32:17.710Z,87.79
2023-04-01T16:34:56.828Z,87.54
2023-04-01T16:37:32.159Z,88.22
2023-04-01T16:40:17.248Z,87.28
2023-04-01T16:42:46.570Z,86.88
2023-04-01T16:45:35.925Z,87.69
2023-04-01T16:48:11.137Z,87.15
2023-04-01T16:50:47.832Z,86.12
2023-04-01T16:53:14.401Z,86.84
2023-04-01T16:55:55.839Z,86.91
2023-04-01T16:59:04.978Z,87.01
2023-04-01T17:01:49.234Z,87.32
2023-04-01T17:04:31.537Z,86.78
2023-04-01T17:07:12.572Z,87.51
2023-04-01T17:09:54.199Z,86.46
2023-04-01T17:12:42.409Z,86.80
2023-04-01T17:15:33.336Z,86.90
2023-04-01T17:18:09.794Z,86.14
2023-04-01T17:20:56.154Z,86.04
2023-04-01T17:23:36.983Z,86.51
2023-04-01T17:26:16.805Z,86.09
2023-04-01T17:28:52.226Z,87.00
2023-04-01T17:31:18.849Z,86.51
2023-04-01T17:34:22.248Z,86.58
2023-04-01T17:37:20.751Z,86.86
2023-04-01T17:39:59.946Z,86.81
2023-04-01T17:42:47.708Z,86.69
2023-04-01T17:45:29.544Z,87.66
2023-04-01T17:48:14.812Z,87.61
2023-04-01T17:51:06.503Z,87.96
2023-04-01T17:53:54.708Z,88.00
2023-04-01T17:56:50.616Z,88.68
2023-04-01T17:59:40.168Z,87.78
2023-04-01T18:02:18.903Z,87.17
2023-04-01T18:04:57.674Z,86.81
2023-04-01T18:07:49.252Z,87.34
2023-04-01T18:10:49.405Z,87.82
2023-04-01T18:13:31.248Z,87.35
2023-04-01T18:16:12.721Z,87.47
2023-04-01T18:18:51.228Z,86.29
2023-04-01T18:21:45.896Z,86.67
2023-04-01T18:24:42.918Z,86.77
2023-04-01T18:27:31.253Z,87.20
2023-04-01T18:30:16.312Z,87.81
2023-04-01T18:32:59.274Z,88.00
2023-04-01T18:35:44.649Z,87.97
2023-04-01T18:38:11.303Z,88.45
2023-04-01T18:40:47.970Z,88.54
2023-04-01T18:43:17.532Z,88.16
2023-04-01T18:46:08.032Z,88.60
2023-04-01T18:49:13.497Z,88.49
2023-04-01T18:51:50.679Z,88.60
2023-04-01T18:54:28.179Z,87.41
2023-04-01T18:57:13.322Z,87.85
2023-04-01T19:00:05.847Z,87.24
2023-04-01T19:02:38.843Z,87.58
2023-04-01T19:05:24.513Z,87.62
2023-04-01T19:07:54.436Z,87.46
2023-04-01T19:10:24.137Z,87.79
2023-04-01T19:12:57.115Z,87.76
2023-04-01T19:15:44.946Z,87.62
2023-04-01T19:18:23.755Z,87.38
2023-04-01T19:21:09.139Z,86.89
2023-04-01T19:23:54.149Z,87.24
2023-04-01T19:26:43.076Z,87.07
2023-04-01T19:29:35.294Z,87.18
2023-04-01T19:32:39.350Z,87.54
2023-04-01T19:35:24.787Z,87.68
2023-04-01T19:38:12.453Z,86.84
2023-04-01T19:40:49.580Z,87.65
2023-04-01T19:43:34.918Z,87.66
2023-04-01T19:46:22.864Z,87.69
2023-04-01T19:49:10.942Z,87.79
2023-04-01T19:52:04.925Z,88.04
2023-04-01T19:54:40.854Z,87.94
2023-04-01T19:57:15.533Z,87.87
2023-04-01T19:59:53.348Z,88.52
2023-04-01T20:02:46.511Z,88.79
2023-04-01T20:05:36.257Z,88.31
2023-04-01T20:08:10.904Z,88.43
2023-04-01T20:11:03.435Z,89.69
2023-04-01T20:14:15.387Z,91.00
2023-04-01T20:16:54.102Z,92.01
2023-04-01T20:19:38.497Z,91.70
2023-04-01T20:22:31.642Z,92.54
2023-04-01T20:25:20.892Z,93.71
2023-04-01T20:27:59.397Z,93.54
2023-04-01T20:30:37.937Z,95.07
2023-04-01T20:33:38.195Z,94.54
2023-04-01T20:36:27.720Z,95.16
2023-04-01T20:39:41.782Z,94.32
2023-04-01T20:42:27.843Z,94.37
2023-04-01T20:45:18.229Z,94.17
2023-04-01T20:48:12.867Z,94.69
2023-04-01T20:50:50.349Z,94.23
2023-04-01T20:53:23.824Z,94.43
2023-04-01T20:55:56.272Z,95.05
2023-04-01T20:58:43.257Z,95.25
2023-04-01T21:01:30.588Z,94.48
2023-04-01T21:04:28.684Z,95.70
2023-04-01T21:07:12.170Z,95.90
2023-04-01T21:09:44.618Z,96.00
2023-04-01T21:12:28.431Z,95.50
2023-04-01T21:15:13.771Z,96.32
2023-04-01T21:17:59.871Z,96.30
2023-04-01T21:20:51.935Z,97.21
2023-04-01T21:23:31.100Z,97.50
2023-04-01T21:26:20.556Z,97.58
2023-04-01T21:29:08.909Z,97.56
2023-04-01T21:32:05.940Z,96.76
2023-04-01T21:34:50.729Z,97.12
2023-04-01T21:37:54.642Z,97.59
2023-04-01T21:40:45.427Z,97.07
2023-04-01T21:43:26.857Z,96.78
2023-04-01T21:46:39.933Z,96.63
2023-04-01T21:49:25.710Z,96.74
2023-04-01T21:52:07.367Z,97.24
2023-04-01T21:54:44.200Z,97.66
2023-04-01T21:57:26.286Z,97.30
2023-04-01T22:00:31.268Z,97.77
2023-04-01T22:03:27.266Z,97.26
2023-04-01T22:06:01.610Z,98.42
2023-04-01T22:08:28.084Z,98.68
2023-04-01T22:11:14.089Z,98.63
2023-04-01T22:13:50.520Z,98.48
2023-04-01T22:16:26.584Z,97.10
2023-04-01T22:19:21.548Z,96.52
2023-04-01T22:22:02.462Z,97.22
2023-04-01T22:24:39.025Z,96.85
2023-04-01T22:27:31.870Z,96.68
2023-04-01T22:30:16.837Z,96.54
2023-04-01T22:32:51.136Z,96.97
2023-04-01T22:35:33.232Z,96.54
2023-04-01T22:38:11.225Z,97.00
2023-04-01T22:41:13.453Z,95.95
2023-04-01T22:43:44.224Z,95.89
2023-04-01T22:46:29.280Z,95.77
2023-04-01T22:49:06.593Z,96.52
2023-04-01T22:51:45.670Z,95.63
2023-04-01T22:54:47.665Z,94.53
2023-04-01T22:57:33.269Z,93.58
2023-04-01T23:00:19.770Z,94.00
2023-04-01T23:03:05.304Z,93.33
2023-04-01T23:05:33.164Z,92.78
2023-04-01T23:08:24.697Z,92.83
2023-04-01T23:10:55.844Z,92.84
2023-04-01T23:13:40.010Z,92.94
2023-04-01T23:16:09.101Z,92.78
2023-04-01T23:18:51.601Z,92.96
2023-04-01T23:22:01.130Z,91.75
2023-04-01T23:24:51.868Z,91.46
2023-04-01T23:27:38.723Z,91.75
2023-04-01T23:30:25.820Z,91.50
2023-04-01T23:32:52.474Z,91.37
2023-04-01T23:35:19.223Z,90.74
2023-04-01T23:37:46.788Z,91.06
2023-04-01T23:40:14.638Z,90.95
2023-04-01T23:42:42.884Z,90.43
2023-04-01T23:45:20.964Z,89.90
2023-04-01T23:47:51.328Z,89.70
2023-04-01T23:50:22.262Z,89.65
2023-04-01T23:53:02.602Z,89.84
2023-04-01T23:55:33.414Z,90.00
2023-04-01T23:58:06.452Z,89.73
